Time;durP1;ratioP1;P1;durP2;ratioP2;P2;SDS_P1;SDS_P2;PMS_P1;PMS_P2;Temp;Humidity;BMP_temperature;BMP_pressure;BME280_temperature;BME280_humidity;BME280_pressure;Samples;Min_cycle;Max_cycle;Signal;HPM_P1;HPM_P2
2021/01/21 00:01:29;;;;;;;7.40;3.20;;;9.30;83.50;;;;;;5063573;28;20028;-76
2021/01/21 00:03:55;;;;;;;4.38;3.22;;;9.20;83.40;;;;;;5065341;28;20073;-77
2021/01/21 00:06:21;;;;;;;3.25;2.80;;;9.20;83.40;;;;;;5065618;28;20024;-77
2021/01/21 00:08:47;;;;;;;5.57;3.50;;;9.10;83.30;;;;;;5065254;28;20464;-77
2021/01/21 00:11:13;;;;;;;4.65;3.58;;;9.10;83.30;;;;;;5065601;28;20031;-76
2021/01/21 00:13:39;;;;;;;4.20;3.25;;;9.10;83.30;;;;;;5063954;28;20177;-76
2021/01/21 00:16:05;;;;;;;7.13;4.00;;;9.00;83.20;;;;;;5064001;28;20028;-76
2021/01/21 00:18:31;;;;;;;5.53;3.60;;;9.00;83.20;;;;;;5045766;28;20430;-76
2021/01/21 00:20:57;;;;;;;5.63;3.95;;;9.00;83.20;;;;;;5058619;28;20326;-76
2021/01/21 00:23:23;;;;;;;5.03;4.07;;;8.90;83.10;;;;;;5043649;28;20048;-76
2021/01/21 00:25:50;;;;;;;9.00;4.70;;;8.90;83.10;;;;;;5043966;28;20118;-76
2021/01/21 00:28:19;;;;;;;6.22;4.35;;;8.90;83.10;;;;;;5043910;28;20029;-76
2021/01/21 00:30:46;;;;;;;4.60;3.88;;;8.80;83.00;;;;;;5043856;28;20029;-76
2021/01/21 00:33:12;;;;;;;5.00;3.75;;;8.80;83.00;;;;;;5045158;28;20044;-76
2021/01/21 00:35:38;;;;;;;7.28;4.40;;;8.80;83.00;;;;;;5046339;28;20113;-76
2021/01/21 00:38:04;;;;;;;7.45;4.20;;;8.80;83.00;;;;;;5044485;28;20127;-77
2021/01/21 00:40:30;;;;;;;6.63;4.60;;;8.80;83.00;;;;;;5045370;28;20082;-77
2021/01/21 00:42:56;;;;;;;6.65;4.03;;;8.70;82.90;;;;;;5043705;28;20111;-77
2021/01/21 00:45:23;;;;;;;7.22;4.18;;;8.70;82.90;;;;;;5043780;28;20028;-75
2021/01/21 00:47:50;;;;;;;5.00;3.85;;;8.70;82.90;;;;;;5044564;28;20051;-77
2021/01/21 00:50:16;;;;;;;5.28;4.32;;;8.60;82.70;;;;;;5043369;28;20124;-77
2021/01/21 00:52:42;;;;;;;4.95;3.58;;;8.60;82.70;;;;;;5042525;28;20040;-77
2021/01/21 00:55:09;;;;;;;6.35;4.15;;;8.60;82.70;;;;;;5054879;28;20406;-77
2021/01/21 00:57:35;;;;;;;9.20;4.22;;;8.60;82.70;;;;;;5062972;28;20029;-76
2021/01/21 01:00:08;;;;;;;3.83;3.50;;;8.50;82.50;;;;;;5062503;28;20059;-77
2021/01/21 01:02:40;;;;;;;4.05;3.15;;;8.50;82.50;;;;;;5063437;28;20119;-77
2021/01/21 01:05:08;;;;;;;6.30;3.55;;;8.50;83.00;;;;;;5043357;28;20127;-76
2021/01/21 01:07:34;;;;;;;3.80;3.35;;;8.50;82.50;;;;;;5043680;28;20032;-77
2021/01/21 01:10:01;;;;;;;4.80;3.38;;;8.40;82.40;;;;;;5043586;28;20097;-76
2021/01/21 01:12:27;;;;;;;6.45;3.55;;;8.40;82.40;;;;;;5026247;28;20021;-77
2021/01/21 01:14:53;;;;;;;5.53;3.35;;;8.40;82.40;;;;;;5043146;28;20033;-77
2021/01/21 01:17:19;;;;;;;3.00;2.70;;;8.40;82.40;;;;;;5043071;28;20424;-76
2021/01/21 01:19:50;;;;;;;5.20;3.58;;;8.30;82.30;;;;;;5042647;28;20036;-77
2021/01/21 01:22:16;;;;;;;5.65;3.00;;;8.30;82.30;;;;;;5043067;28;20048;-77
2021/01/21 01:24:43;;;;;;;4.30;2.95;;;8.30;82.30;;;;;;5026533;28;20468;-76
2021/01/21 01:27:09;;;;;;;4.75;3.25;;;8.20;82.10;;;;;;5043232;28;20457;-77
2021/01/21 01:29:35;;;;;;;2.78;2.25;;;8.20;82.10;;;;;;5042973;28;20037;-76
2021/01/21 01:32:03;;;;;;;6.63;3.00;;;8.20;82.10;;;;;;5042949;28;20041;-76
2021/01/21 01:34:38;;;;;;;5.93;2.80;;;8.20;82.10;;;;;;5044448;28;20029;-77
2021/01/21 01:37:10;;;;;;;6.03;3.63;;;8.10;82.00;;;;;;5042924;28;20029;-77
2021/01/21 01:39:43;;;;;;;2.85;2.47;;;8.10;81.90;;;;;;5043196;28;20119;-76
2021/01/21 01:42:22;;;;;;;4.85;2.40;;;8.20;82.10;;;;;;5044219;28;20047;-76
2021/01/21 01:44:51;;;;;;;3.95;3.17;;;8.10;82.00;;;;;;5042980;28;20095;-77
2021/01/21 01:47:18;;;;;;;3.63;3.03;;;8.10;82.00;;;;;;5042924;28;20440;-77
2021/01/21 01:49:45;;;;;;;4.32;3.08;;;8.00;81.90;;;;;;5037199;28;20060;-77
2021/01/21 01:52:11;;;;;;;5.07;3.15;;;8.00;81.90;;;;;;5044709;28;20056;-76
2021/01/21 01:54:40;;;;;;;3.53;2.92;;;8.00;82.00;;;;;;5053763;28;20520;-77
2021/01/21 01:57:25;;;;;;;3.38;2.22;;;8.00;82.10;;;;;;5045773;28;20028;-77
2021/01/21 01:59:58;;;;;;;4.15;3.08;;;8.00;82.20;;;;;;5047489;28;20045;-77
2021/01/21 02:02:24;;;;;;;6.85;3.33;;;8.00;82.20;;;;;;5026621;28;20036;-77
2021/01/21 02:04:57;;;;;;;4.25;2.50;;;7.90;82.10;;;;;;5029527;28;20033;-77
2021/01/21 02:07:30;;;;;;;5.57;2.30;;;7.90;82.10;;;;;;5046843;28;20025;-76
2021/01/21 02:10:09;;;;;;;4.15;2.35;;;7.90;82.10;;;;;;5046358;28;20045;-76
2021/01/21 02:13:23;;;;;;;2.60;2.40;;;7.90;82.10;;;;;;5046986;28;20092;-76
2021/01/21 02:16:17;;;;;;;13.07;2.78;;;7.90;82.00;;;;;;5066745;28;20051;-76
2021/01/21 02:18:59;;;;;;;3.72;2.55;;;7.90;82.00;;;;;;5060489;28;20030;-77
2021/01/21 02:21:58;;;;;;;4.15;2.28;;;7.80;81.80;;;;;;5029668;28;20260;-76
2021/01/21 02:24:52;;;;;;;3.00;2.50;;;7.80;81.80;;;;;;5047478;28;20040;-76
2021/01/21 02:27:21;;;;;;;5.70;2.42;;;7.80;81.80;;;;;;5029626;28;20386;-76
2021/01/21 02:29:49;;;;;;;4.10;2.58;;;7.80;81.80;;;;;;5046139;28;20044;-77
2021/01/21 02:32:37;;;;;;;3.75;2.35;;;7.80;81.80;;;;;;5056831;28;20133;-77
2021/01/21 02:35:18;;;;;;;3.45;2.42;;;7.70;81.60;;;;;;5033061;28;20036;-76
2021/01/21 02:37:54;;;;;;;4.15;2.50;;;7.70;81.60;;;;;;5048122;28;20025;-75
2021/01/21 02:40:23;;;;;;;3.25;2.00;;;7.70;81.70;;;;;;5047320;28;20025;-77
2021/01/21 02:43:09;;;;;;;3.10;2.50;;;7.60;81.50;;;;;;5047499;28;20591;-77
2021/01/21 02:45:35;;;;;;;6.35;2.47;;;7.60;81.60;;;;;;5053276;28;20073;-78
2021/01/21 02:48:03;;;;;;;4.35;2.22;;;7.60;81.70;;;;;;5060183;28;20056;-76
2021/01/21 02:51:01;;;;;;;3.13;2.22;;;7.60;81.70;;;;;;5052049;28;20506;-75
2021/01/21 02:53:30;;;;;;;5.07;2.90;;;7.60;81.80;;;;;;5050582;28;20037;-76
2021/01/21 02:56:00;;;;;;;7.85;2.40;;;7.50;81.70;;;;;;5067148;28;20071;-75
2021/01/21 02:58:37;;;;;;;5.32;2.17;;;7.50;81.80;;;;;;5070685;28;20032;-76
2021/01/21 03:01:10;;;;;;;6.78;2.42;;;7.50;81.90;;;;;;5069547;28;20020;-76
2021/01/21 03:03:39;;;;;;;6.35;2.33;;;7.50;82.40;;;;;;5069766;28;20107;-75
2021/01/21 03:06:10;;;;;;;3.90;2.10;;;7.50;81.90;;;;;;5071702;28;20035;-76
2021/01/21 03:08:40;;;;;;;3.63;1.75;;;7.50;81.90;;;;;;5069996;28;20500;-76
2021/01/21 03:11:13;;;;;;;8.57;2.03;;;7.50;81.90;;;;;;5070357;28;20071;-76
2021/01/21 03:13:45;;;;;;;3.78;1.83;;;7.50;81.90;;;;;;5071683;28;20058;-76
2021/01/21 03:16:13;;;;;;;7.00;2.40;;;7.60;82.10;;;;;;5069179;28;20636;-75
2021/01/21 03:18:40;;;;;;;4.90;2.42;;;7.50;81.90;;;;;;5070054;28;20029;-76
2021/01/21 03:21:08;;;;;;;3.05;1.70;;;7.50;81.90;;;;;;5053886;28;20024;-75
2021/01/21 03:23:42;;;;;;;6.55;1.70;;;7.50;82.00;;;;;;5069796;28;20487;-75
2021/01/21 03:26:11;;;;;;;4.47;2.08;;;7.50;82.00;;;;;;5069936;28;20440;-75
2021/01/21 03:28:40;;;;;;;3.25;2.03;;;7.50;82.00;;;;;;5053439;28;20062;-75
2021/01/21 03:31:09;;;;;;;5.95;2.35;;;7.50;82.10;;;;;;5053601;28;20031;-76
2021/01/21 03:33:35;;;;;;;8.48;2.15;;;7.50;82.10;;;;;;5070228;28;20032;-76
2021/01/21 03:36:01;;;;;;;3.45;2.20;;;7.50;82.10;;;;;;5069629;28;20025;-74
2021/01/21 03:38:27;;;;;;;3.35;1.65;;;7.50;82.20;;;;;;5069990;28;20036;-75
2021/01/21 03:41:14;;;;;;;2.72;1.80;;;7.50;82.20;;;;;;5039310;28;20105;-75
2021/01/21 03:43:44;;;;;;;4.47;1.80;;;7.50;82.20;;;;;;5069666;28;20135;-75
2021/01/21 03:46:23;;;;;;;3.95;1.90;;;7.50;82.30;;;;;;5069774;28;20090;-77
2021/01/21 03:48:50;;;;;;;3.22;1.88;;;7.50;82.30;;;;;;5069431;28;20064;-76
2021/01/21 03:51:42;;;;;;;6.13;2.28;;;7.50;82.30;;;;;;5053834;28;20478;-76
2021/01/21 03:54:30;;;;;;;4.15;2.10;;;7.50;82.30;;;;;;5065543;28;20032;-77
2021/01/21 03:57:03;;;;;;;6.55;2.33;;;7.50;82.30;;;;;;5049351;28;20039;-76
2021/01/21 03:59:29;;;;;;;5.72;2.40;;;7.50;82.30;;;;;;5049310;28;20037;-75
2021/01/21 04:01:56;;;;;;;2.95;1.67;;;7.50;82.40;;;;;;5049177;28;20610;-75
2021/01/21 04:04:23;;;;;;;3.30;1.52;;;7.50;82.40;;;;;;5049245;28;20033;-74
2021/01/21 04:06:50;;;;;;;2.03;1.50;;;7.50;82.40;;;;;;5049078;28;20057;-75
2021/01/21 04:09:21;;;;;;;3.70;1.70;;;7.50;82.40;;;;;;5049173;28;20064;-74
2021/01/21 04:11:58;;;;;;;5.78;1.70;;;7.50;82.50;;;;;;5049186;28;20052;-76
2021/01/21 04:14:24;;;;;;;6.40;1.90;;;7.50;82.50;;;;;;5048605;28;20064;-75
2021/01/21 04:16:51;;;;;;;4.32;1.77;;;7.50;82.50;;;;;;5032717;28;20036;-76
2021/01/21 04:19:18;;;;;;;4.13;1.50;;;7.50;82.50;;;;;;5048785;28;20068;-76
2021/01/21 04:21:50;;;;;;;6.43;1.48;;;7.50;82.50;;;;;;5050270;28;20025;-76
2021/01/21 04:24:20;;;;;;;3.10;1.58;;;7.50;82.50;;;;;;5049246;28;20056;-75
2021/01/21 04:26:50;;;;;;;6.10;2.15;;;7.50;82.50;;;;;;5064706;28;20024;-76
2021/01/21 04:29:22;;;;;;;4.90;1.88;;;7.50;82.50;;;;;;5032695;28;20036;-77
2021/01/21 04:31:52;;;;;;;4.82;1.55;;;7.50;82.50;;;;;;5048700;28;20029;-77
2021/01/21 04:34:23;;;;;;;4.15;1.77;;;7.50;82.50;;;;;;5048663;28;20492;-75
2021/01/21 04:36:51;;;;;;;7.28;2.05;;;7.50;82.50;;;;;;5048681;28;20033;-75
2021/01/21 04:39:37;;;;;;;2.95;1.85;;;7.50;82.50;;;;;;5049962;28;20021;-75
2021/01/21 04:42:05;;;;;;;4.07;1.60;;;7.50;82.50;;;;;;5048575;28;20589;-76
2021/01/21 04:44:37;;;;;;;4.30;1.73;;;7.50;82.90;;;;;;5048632;28;20060;-75
2021/01/21 04:47:09;;;;;;;5.68;2.00;;;7.50;82.60;;;;;;5032554;28;20504;-74
2021/01/21 04:49:57;;;;;;;3.53;1.90;;;7.40;82.40;;;;;;5049588;28;20037;-76
2021/01/21 04:52:26;;;;;;;1.30;1.17;;;7.50;82.60;;;;;;5048347;28;20383;-76
2021/01/21 04:54:59;;;;;;;3.67;1.58;;;7.50;83.10;;;;;;5036843;28;20108;-76
2021/01/21 04:57:43;;;;;;;3.40;2.00;;;7.40;82.50;;;;;;5048248;28;20021;-75
2021/01/21 05:00:16;;;;;;;9.68;1.42;;;7.50;82.60;;;;;;5047691;28;20067;-76
2021/01/21 05:02:55;;;;;;;3.50;1.38;;;7.40;82.50;;;;;;5047950;28;20035;-75
2021/01/21 05:05:45;;;;;;;1.73;1.33;;;7.40;82.50;;;;;;5045265;28;20037;-75
2021/01/21 05:08:13;;;;;;;3.33;1.50;;;7.40;82.50;;;;;;5048017;28;20044;-75
2021/01/21 05:10:56;;;;;;;7.45;2.08;;;7.40;82.50;;;;;;5048416;28;20029;-76
2021/01/21 05:13:27;;;;;;;7.25;2.10;;;7.40;82.50;;;;;;5032121;28;20052;-76
2021/01/21 05:16:11;;;;;;;4.00;1.60;;;7.40;82.50;;;;;;5048440;28;20044;-75
2021/01/21 05:18:50;;;;;;;7.10;2.72;;;7.40;82.50;;;;;;5047875;28;20021;-76
2021/01/21 05:21:50;;;;;;;3.63;1.38;;;7.40;82.50;;;;;;5049397;28;20380;-76
2021/01/21 05:24:49;;;;;;;3.00;1.75;;;7.40;82.40;;;;;;5047975;28;20505;-75
2021/01/21 05:27:38;;;;;;;2.78;1.48;;;7.40;82.40;;;;;;5047592;28;20471;-76
2021/01/21 05:30:30;;;;;;;2.83;1.65;;;7.40;82.40;;;;;;5049290;28;20033;-75
2021/01/21 05:32:58;;;;;;;2.70;1.30;;;7.40;82.40;;;;;;5049109;28;20017;-76
2021/01/21 05:35:51;;;;;;;6.43;1.73;;;7.40;82.50;;;;;;5065871;28;20044;-76
2021/01/21 05:38:17;;;;;;;3.22;1.85;;;7.40;82.50;;;;;;5051143;28;20119;-76
2021/01/21 05:41:08;;;;;;;3.65;1.45;;;7.40;82.50;;;;;;5068720;28;20036;-76
2021/01/21 05:43:48;;;;;;;5.20;1.60;;;7.40;82.50;;;;;;5068283;28;20510;-75
2021/01/21 05:46:20;;;;;;;6.15;1.75;;;7.40;82.50;;;;;;5053067;28;20098;-76
2021/01/21 05:48:47;;;;;;;4.50;1.48;;;7.40;82.50;;;;;;5048962;28;20347;-76
2021/01/21 05:51:14;;;;;;;3.40;1.35;;;7.40;82.60;;;;;;5047208;28;20029;-76
2021/01/21 05:53:42;;;;;;;3.00;1.20;;;7.40;82.60;;;;;;5049059;28;20032;-76
2021/01/21 05:56:19;;;;;;;3.92;1.55;;;7.40;82.60;;;;;;5048170;28;20057;-76
2021/01/21 05:59:11;;;;;;;5.45;1.70;;;7.40;82.60;;;;;;5035514;28;20029;-75
2021/01/21 06:01:39;;;;;;;2.25;1.50;;;7.40;82.60;;;;;;5048677;28;20055;-76
2021/01/21 06:04:13;;;;;;;2.45;1.55;;;7.30;82.40;;;;;;5029824;28;20036;-75
2021/01/21 06:06:42;;;;;;;4.22;1.73;;;7.40;82.60;;;;;;5042547;28;20064;-77
2021/01/21 06:09:17;;;;;;;2.35;1.60;;;7.40;82.60;;;;;;5045188;28;20480;-76
2021/01/21 06:11:43;;;;;;;5.32;2.15;;;7.40;83.20;;;;;;5068198;28;20448;-77
2021/01/21 06:14:11;;;;;;;3.83;2.17;;;7.30;82.50;;;;;;5066826;28;20090;-76
2021/01/21 06:16:41;;;;;;;2.35;1.40;;;7.30;82.50;;;;;;5066817;28;20024;-75
2021/01/21 06:19:07;;;;;;;2.92;1.42;;;7.40;82.70;;;;;;5051170;28;20389;-75
2021/01/21 06:21:43;;;;;;;2.35;1.15;;;7.30;82.50;;;;;;5046990;28;20020;-74
2021/01/21 06:24:16;;;;;;;2.92;1.50;;;7.30;82.50;;;;;;5045959;28;20536;-75
2021/01/21 06:26:50;;;;;;;2.53;1.60;;;7.30;82.50;;;;;;5046353;28;20025;-74
2021/01/21 06:29:18;;;;;;;3.47;1.83;;;7.30;82.50;;;;;;5047565;28;20047;-75
2021/01/21 06:31:48;;;;;;;2.80;1.55;;;7.30;82.50;;;;;;5047603;28;20083;-76
2021/01/21 06:34:24;;;;;;;7.88;2.08;;;7.30;82.50;;;;;;5047439;28;20348;-76
2021/01/21 06:36:58;;;;;;;5.78;1.35;;;7.30;82.50;;;;;;5047864;28;20444;-75
2021/01/21 06:39:52;;;;;;;4.88;1.73;;;7.30;82.60;;;;;;5045857;28;20124;-76
2021/01/21 06:42:25;;;;;;;2.72;1.50;;;7.30;82.60;;;;;;5046985;28;20132;-75
2021/01/21 06:44:52;;;;;;;3.40;1.60;;;7.30;82.50;;;;;;5065852;28;20412;-76
2021/01/21 06:47:19;;;;;;;4.70;1.65;;;7.30;82.60;;;;;;5065749;28;20432;-75
2021/01/21 06:49:46;;;;;;;4.68;1.42;;;7.30;82.60;;;;;;5065695;28;20024;-76
2021/01/21 06:52:12;;;;;;;2.78;1.50;;;7.30;82.60;;;;;;5048342;28;20364;-76
2021/01/21 06:54:40;;;;;;;2.60;1.20;;;7.30;82.60;;;;;;5059717;28;20476;-75
2021/01/21 06:57:33;;;;;;;4.85;1.95;;;7.20;82.40;;;;;;5048996;28;20025;-78
2021/01/21 07:00:08;;;;;;;4.43;2.10;;;7.30;82.60;;;;;;5053875;28;20025;-76
2021/01/21 07:02:48;;;;;;;4.72;1.48;;;7.20;82.40;;;;;;5052863;28;20021;-75
2021/01/21 07:05:17;;;;;;;5.20;1.63;;;7.30;82.60;;;;;;5045376;28;20082;-75
2021/01/21 07:07:55;;;;;;;3.38;1.60;;;7.30;82.60;;;;;;5057693;28;20032;-75
2021/01/21 07:10:42;;;;;;;14.00;1.80;;;7.20;82.40;;;;;;5061265;28;20566;-74
2021/01/21 07:13:15;;;;;;;4.78;1.80;;;7.30;82.60;;;;;;5044703;28;20040;-74
2021/01/21 07:15:41;;;;;;;6.07;1.67;;;7.30;82.50;;;;;;5065174;28;20119;-76
2021/01/21 07:18:13;;;;;;;5.47;1.88;;;7.30;82.50;;;;;;5057801;28;20046;-75
2021/01/21 07:21:07;;;;;;;4.03;1.55;;;7.30;82.50;;;;;;5064020;28;20459;-75
2021/01/21 07:23:39;;;;;;;13.65;2.10;;;7.30;82.50;;;;;;5064283;28;20048;-76
2021/01/21 07:26:28;;;;;;;4.25;1.67;;;7.30;82.50;;;;;;5048374;28;20031;-76
2021/01/21 07:29:19;;;;;;;11.68;1.65;;;7.30;82.50;;;;;;5051304;28;20067;-77
2021/01/21 07:31:55;;;;;;;5.65;1.90;;;7.30;82.40;;;;;;5044987;28;20099;-77
2021/01/21 07:34:21;;;;;;;3.58;1.38;;;7.30;82.40;;;;;;5047620;28;20571;-75
2021/01/21 07:37:10;;;;;;;5.07;1.67;;;7.30;82.40;;;;;;5064933;28;20055;-75
2021/01/21 07:39:59;;;;;;;5.18;1.83;;;7.30;82.40;;;;;;5064918;28;20068;-76
2021/01/21 07:42:37;;;;;;;6.93;2.22;;;7.40;82.50;;;;;;5061069;28;20068;-75
2021/01/21 07:45:23;;;;;;;3.67;1.45;;;7.40;82.40;;;;;;5045999;28;20033;-76
2021/01/21 07:47:50;;;;;;;5.57;1.83;;;7.40;82.40;;;;;;5028502;28;20516;-76
2021/01/21 07:50:16;;;;;;;3.58;1.50;;;7.40;82.40;;;;;;5047481;28;20484;-75
2021/01/21 07:52:44;;;;;;;1.98;1.55;;;7.40;82.40;;;;;;5053229;28;20037;-76
2021/01/21 07:55:11;;;;;;;7.10;2.05;;;7.40;82.40;;;;;;5053847;28;20532;-76
2021/01/21 07:57:37;;;;;;;5.78;2.63;;;7.30;82.20;;;;;;5030526;28;20477;-76
2021/01/21 08:00:09;;;;;;;5.65;1.50;;;7.30;82.20;;;;;;5064696;28;20040;-75
2021/01/21 08:02:51;;;;;;;7.22;2.42;;;7.40;82.40;;;;;;5051123;28;20053;-76
2021/01/21 08:05:23;;;;;;;2.05;1.65;;;7.40;82.30;;;;;;5042387;28;20029;-76
2021/01/21 08:07:51;;;;;;;7.03;2.08;;;7.30;82.20;;;;;;5048978;28;20037;-74
2021/01/21 08:10:21;;;;;;;5.88;1.33;;;7.30;82.10;;;;;;5057282;28;20032;-74
2021/01/21 08:13:02;;;;;;;6.45;2.00;;;7.30;82.10;;;;;;5069704;28;20142;-75
2021/01/21 08:15:30;;;;;;;2.58;1.50;;;7.30;82.10;;;;;;5071804;28;20391;-74
2021/01/21 08:17:57;;;;;;;8.60;2.60;;;7.30;82.10;;;;;;5062164;28;20028;-75
2021/01/21 08:20:25;;;;;;;4.70;1.77;;;7.40;82.30;;;;;;5054151;28;20108;-74
2021/01/21 08:22:54;;;;;;;3.80;1.63;;;7.40;82.20;;;;;;5053208;28;20036;-74
2021/01/21 08:25:21;;;;;;;5.78;1.67;;;7.40;82.20;;;;;;5064726;28;20024;-74
2021/01/21 08:27:50;;;;;;;8.32;2.05;;;7.40;82.20;;;;;;5065042;28;20170;-75
2021/01/21 08:30:24;;;;;;;2.55;1.30;;;7.40;82.10;;;;;;5060720;28;20368;-74
2021/01/21 08:33:07;;;;;;;3.47;1.38;;;7.40;82.10;;;;;;5060797;28;20098;-76
2021/01/21 08:35:37;;;;;;;4.30;1.83;;;7.40;82.00;;;;;;5065634;28;20105;-74
2021/01/21 08:38:05;;;;;;;4.30;2.10;;;7.40;82.00;;;;;;5058767;28;20060;-73
2021/01/21 08:40:32;;;;;;;1.92;1.30;;;7.40;82.00;;;;;;5044992;28;20381;-75
2021/01/21 08:42:59;;;;;;;5.57;2.25;;;7.40;82.00;;;;;;5044388;28;20028;-75
2021/01/21 08:45:29;;;;;;;6.88;1.67;;;7.40;82.00;;;;;;5045033;28;20029;-74
2021/01/21 08:47:55;;;;;;;1.70;1.35;;;7.40;82.00;;;;;;5043563;28;20059;-73
2021/01/21 08:50:32;;;;;;;2.38;1.65;;;7.40;82.00;;;;;;5045218;28;20029;-75
2021/01/21 08:53:03;;;;;;;3.30;1.48;;;7.40;82.00;;;;;;5026918;28;20032;-75
2021/01/21 08:55:48;;;;;;;4.00;1.50;;;7.30;81.90;;;;;;5045180;28;20063;-72
2021/01/21 08:58:16;;;;;;;3.90;1.92;;;7.30;81.90;;;;;;5047937;28;20040;-73
2021/01/21 09:00:59;;;;;;;1.75;1.50;;;7.30;81.90;;;;;;5064758;28;20035;-73
2021/01/21 09:03:36;;;;;;;6.37;2.10;;;7.30;81.90;;;;;;5046606;28;20036;-76
2021/01/21 09:06:04;;;;;;;2.20;1.50;;;7.30;81.90;;;;;;5062731;28;20128;-73
2021/01/21 09:08:32;;;;;;;4.22;1.67;;;7.30;81.90;;;;;;5064564;28;20035;-75
2021/01/21 09:10:59;;;;;;;4.90;1.48;;;7.30;81.90;;;;;;5062908;28;20033;-73
2021/01/21 09:13:25;;;;;;;4.18;1.90;;;7.30;81.90;;;;;;5062323;28;20483;-74
2021/01/21 09:15:56;;;;;;;4.05;2.03;;;7.30;81.90;;;;;;5065241;28;20155;-75
2021/01/21 09:18:24;;;;;;;4.70;1.58;;;7.30;81.90;;;;;;5063139;28;20495;-74
2021/01/21 09:21:09;;;;;;;6.07;1.48;;;7.30;81.90;;;;;;5051299;28;20037;-74
2021/01/21 09:23:35;;;;;;;9.90;2.08;;;7.30;81.80;;;;;;5056260;28;20458;-74
2021/01/21 09:26:12;;;;;;;3.65;1.60;;;7.40;82.00;;;;;;5065353;28;20037;-74
2021/01/21 09:28:57;;;;;;;5.63;1.52;;;7.30;81.80;;;;;;5065117;28;20040;-74
2021/01/21 09:31:26;;;;;;;3.00;1.60;;;7.40;82.00;;;;;;5065498;28;20056;-74
2021/01/21 09:33:53;;;;;;;6.93;2.35;;;7.40;82.00;;;;;;5048332;28;20479;-75
2021/01/21 09:36:27;;;;;;;5.63;1.63;;;7.40;82.00;;;;;;5064257;28;20028;-76
2021/01/21 09:38:54;;;;;;;5.68;2.53;;;7.50;82.20;;;;;;5064927;28;20426;-76
2021/01/21 09:41:20;;;;;;;6.05;1.85;;;7.60;82.30;;;;;;5065930;28;20032;-76
2021/01/21 09:43:47;;;;;;;6.63;2.28;;;7.70;82.40;;;;;;5065110;28;20052;-76
2021/01/21 09:46:13;;;;;;;7.50;1.77;;;7.80;82.50;;;;;;5064016;28;20036;-74
2021/01/21 09:48:39;;;;;;;6.38;1.73;;;7.80;82.30;;;;;;5065379;28;20405;-75
2021/01/21 09:51:05;;;;;;;7.20;1.80;;;7.90;82.40;;;;;;5047608;28;20086;-75
2021/01/21 09:53:31;;;;;;;6.00;1.60;;;7.90;82.30;;;;;;5064591;28;20043;-75
2021/01/21 09:55:56;;;;;;;4.28;1.52;;;8.00;82.40;;;;;;5047634;28;20100;-75
2021/01/21 09:58:24;;;;;;;9.60;2.88;;;8.00;82.30;;;;;;5032005;28;20060;-76
2021/01/21 10:00:51;;;;;;;6.55;2.60;;;8.10;82.40;;;;;;5046149;28;20110;-75
2021/01/21 10:03:18;;;;;;;3.95;1.65;;;8.10;82.40;;;;;;5054095;28;20405;-76
2021/01/21 10:05:48;;;;;;;11.82;2.00;;;8.20;82.60;;;;;;5027336;28;20032;-75
2021/01/21 10:08:14;;;;;;;8.68;2.00;;;8.20;82.60;;;;;;5044755;28;20390;-76
2021/01/21 10:10:40;;;;;;;4.70;1.65;;;8.20;82.50;;;;;;5044822;28;20079;-76
2021/01/21 10:13:06;;;;;;;6.68;2.25;;;8.30;82.60;;;;;;5045204;28;20029;-77
2021/01/21 10:15:32;;;;;;;6.07;1.90;;;8.40;82.80;;;;;;5046165;28;20050;-74
2021/01/21 10:17:58;;;;;;;5.13;1.92;;;8.40;82.60;;;;;;5043083;28;20488;-74
2021/01/21 10:20:24;;;;;;;13.90;3.25;;;8.50;82.80;;;;;;5043267;28;20029;-74
2021/01/21 10:22:50;;;;;;;4.25;1.83;;;8.50;82.80;;;;;;5051054;28;20446;-76
2021/01/21 10:25:16;;;;;;;12.52;2.65;;;8.60;83.20;;;;;;5065553;28;20632;-75
2021/01/21 10:27:42;;;;;;;7.35;2.75;;;8.70;83.40;;;;;;5069314;28;20056;-75
2021/01/21 10:30:09;;;;;;;10.45;2.22;;;8.70;83.30;;;;;;5076493;28;20052;-74
2021/01/21 10:32:35;;;;;;;5.43;2.13;;;8.80;83.50;;;;;;5069830;28;20063;-76
2021/01/21 10:35:02;;;;;;;9.30;2.13;;;8.90;83.60;;;;;;5030339;28;20029;-74
2021/01/21 10:37:28;;;;;;;6.03;2.60;;;8.90;83.50;;;;;;5048678;28;20033;-75
2021/01/21 10:39:54;;;;;;;11.88;2.78;;;9.00;83.50;;;;;;5029555;28;20094;-75
2021/01/21 10:42:20;;;;;;;7.70;3.03;;;9.00;83.40;;;;;;5046160;28;20547;-74
2021/01/21 10:44:46;;;;;;;7.38;2.80;;;9.00;83.30;;;;;;5047902;28;20171;-75
2021/01/21 10:47:12;;;;;;;9.88;2.20;;;9.00;83.30;;;;;;5048941;28;20491;-74
2021/01/21 10:49:38;;;;;;;11.85;2.50;;;9.00;83.30;;;;;;5048931;28;20037;-77
2021/01/21 10:52:04;;;;;;;10.95;2.80;;;9.00;83.30;;;;;;5047574;28;20029;-75
2021/01/21 10:54:30;;;;;;;8.30;2.20;;;9.00;83.30;;;;;;5047260;28;20025;-75
2021/01/21 10:56:56;;;;;;;11.00;3.35;;;8.90;83.10;;;;;;5048681;28;20472;-75
2021/01/21 10:59:22;;;;;;;8.18;2.50;;;8.90;83.10;;;;;;5048170;28;20025;-75
2021/01/21 11:01:48;;;;;;;4.55;2.35;;;8.90;83.00;;;;;;5046801;28;20036;-76
2021/01/21 11:04:13;;;;;;;3.83;1.80;;;8.90;83.00;;;;;;5066425;28;20044;-75
2021/01/21 11:06:40;;;;;;;9.25;2.85;;;8.90;83.00;;;;;;5068056;28;20072;-74
2021/01/21 11:09:06;;;;;;;4.72;2.20;;;8.90;83.00;;;;;;5053132;28;20535;-75
2021/01/21 11:11:32;;;;;;;6.35;1.73;;;8.90;83.00;;;;;;5029224;28;20025;-75
2021/01/21 11:13:58;;;;;;;5.72;2.05;;;8.90;83.00;;;;;;5048353;28;20048;-76
2021/01/21 11:16:24;;;;;;;7.25;2.42;;;8.80;82.70;;;;;;5047475;28;20093;-76
2021/01/21 11:18:50;;;;;;;3.30;1.98;;;8.80;82.70;;;;;;5045625;28;20120;-75
2021/01/21 11:21:17;;;;;;;8.52;2.10;;;8.80;82.70;;;;;;5047469;28;20460;-74
2021/01/21 11:23:43;;;;;;;4.47;2.10;;;8.80;82.70;;;;;;5038697;28;20068;-75
2021/01/21 11:26:10;;;;;;;7.15;2.83;;;8.90;82.90;;;;;;5061766;28;20059;-76
2021/01/21 11:28:36;;;;;;;4.90;1.98;;;8.90;82.90;;;;;;5047048;28;20047;-75
2021/01/21 11:31:02;;;;;;;9.35;4.13;;;8.90;82.80;;;;;;5047563;28;20431;-76
2021/01/21 11:33:28;;;;;;;13.13;4.82;;;8.90;83.00;;;;;;5045465;28;20036;-76
2021/01/21 11:35:54;;;;;;;8.55;3.75;;;9.00;83.30;;;;;;5028673;28;20090;-75
2021/01/21 11:38:20;;;;;;;11.93;3.83;;;9.10;83.50;;;;;;5046210;28;20183;-76
2021/01/21 11:40:46;;;;;;;12.07;3.92;;;9.20;83.70;;;;;;5045382;28;20164;-75
2021/01/21 11:43:13;;;;;;;10.23;3.75;;;9.30;83.80;;;;;;5044966;28;20039;-75
2021/01/21 11:45:39;;;;;;;9.80;3.83;;;9.50;84.10;;;;;;5045405;28;20084;-76
2021/01/21 11:48:05;;;;;;;4.60;3.15;;;9.50;84.00;;;;;;5044451;28;20053;-77
2021/01/21 11:50:32;;;;;;;8.23;3.63;;;9.60;84.10;;;;;;5044953;28;20429;-75
2021/01/21 11:52:58;;;;;;;8.98;4.70;;;9.70;84.20;;;;;;5045335;28;20170;-76
2021/01/21 11:55:24;;;;;;;16.90;4.65;;;9.80;84.30;;;;;;5057630;28;20083;-77
2021/01/21 11:57:50;;;;;;;9.07;3.70;;;9.90;84.50;;;;;;5061611;28;20211;-76
2021/01/21 12:00:16;;;;;;;9.63;4.28;;;9.90;84.40;;;;;;5046752;28;20341;-76
2021/01/21 12:02:42;;;;;;;9.77;3.35;;;9.90;84.40;;;;;;5043038;28;20031;-76
2021/01/21 12:05:09;;;;;;;8.82;3.75;;;10.00;84.60;;;;;;5055635;28;20278;-75
2021/01/21 12:07:36;;;;;;;9.50;4.47;;;10.10;84.70;;;;;;5066076;28;20059;-78
2021/01/21 12:10:06;;;;;;;6.78;3.17;;;10.10;84.70;;;;;;5046241;28;20099;-76
2021/01/21 12:12:32;;;;;;;6.70;2.92;;;10.10;84.60;;;;;;5045574;28;20069;-76
2021/01/21 12:14:59;;;;;;;8.38;3.67;;;10.10;84.60;;;;;;5046633;28;20462;-76
2021/01/21 12:17:25;;;;;;;10.85;3.30;;;10.10;84.60;;;;;;5046709;28;20056;-74
2021/01/21 12:19:50;;;;;;;8.55;3.60;;;10.20;84.70;;;;;;5049857;28;20032;-77
2021/01/21 12:22:17;;;;;;;6.80;3.05;;;10.20;84.70;;;;;;5064631;28;20058;-75
2021/01/21 12:24:43;;;;;;;7.78;3.28;;;10.30;84.80;;;;;;5045448;28;20085;-76
2021/01/21 12:27:09;;;;;;;6.90;3.17;;;10.30;84.70;;;;;;5046211;28;20136;-76
2021/01/21 12:29:36;;;;;;;7.80;3.13;;;10.30;84.60;;;;;;5052568;28;20041;-77
2021/01/21 12:32:02;;;;;;;7.15;3.50;;;10.30;84.50;;;;;;5049208;28;20065;-77
2021/01/21 12:34:28;;;;;;;7.65;3.50;;;10.40;84.70;;;;;;5049375;28;20476;-77
2021/01/21 12:36:55;;;;;;;7.13;2.97;;;10.30;84.40;;;;;;5067369;28;20032;-77
2021/01/21 12:39:21;;;;;;;7.40;3.33;;;10.40;84.60;;;;;;5065655;28;20097;-77
2021/01/21 12:41:48;;;;;;;8.25;3.70;;;10.40;84.50;;;;;;5067785;28;20081;-76
2021/01/21 12:44:14;;;;;;;5.97;3.03;;;10.40;84.50;;;;;;5066766;28;20055;-77
2021/01/21 12:46:40;;;;;;;8.13;2.85;;;10.40;84.50;;;;;;5068476;28;20045;-79
2021/01/21 12:49:06;;;;;;;8.52;2.85;;;10.40;84.50;;;;;;5067598;28;20055;-77
2021/01/21 12:51:32;;;;;;;6.20;2.40;;;10.50;84.70;;;;;;5073836;28;20029;-78
2021/01/21 12:53:58;;;;;;;6.00;2.65;;;10.60;84.80;;;;;;5078871;28;20067;-75
2021/01/21 12:56:24;;;;;;;4.10;2.15;;;10.60;84.60;;;;;;5060637;28;20316;-75
2021/01/21 12:58:50;;;;;;;8.20;2.70;;;10.70;84.70;;;;;;5050478;28;20036;-76
2021/01/21 13:01:16;;;;;;;8.30;2.80;;;10.80;84.70;;;;;;5047346;28;20036;-77
2021/01/21 13:03:42;;;;;;;5.10;2.30;;;10.90;84.80;;;;;;5049377;28;20035;-76
2021/01/21 13:06:08;;;;;;;7.20;2.45;;;10.90;84.60;;;;;;5047953;28;20044;-77
2021/01/21 13:08:34;;;;;;;6.43;2.80;;;11.00;84.60;;;;;;5050755;28;20044;-78
2021/01/21 13:11:01;;;;;;;7.55;3.17;;;11.00;84.40;;;;;;5049831;28;20036;-79
2021/01/21 13:13:28;;;;;;;5.25;2.28;;;11.10;84.50;;;;;;5047240;28;20286;-77
2021/01/21 13:15:55;;;;;;;5.82;2.30;;;11.10;84.40;;;;;;5050691;28;20528;-77